sensor_id;sensor_type;location;lat;lon;timestamp;pressure;altitude;pressure_sealevel;temperature;humidity
21879;BME280;27908;42.708;23.278;2023-05-20T00:01:55;63804.66;;;11.09;100.00
21879;BME280;27908;42.708;23.278;2023-05-20T00:04:21;63797.38;;;11.00;100.00
21879;BME280;27908;42.708;23.278;2023-05-20T00:06:46;63902.81;;;10.89;100.00
21879;BME280;27908;42.708;23.278;2023-05-20T00:09:12;63762.63;;;10.91;100.00
21879;BME280;27908;42.708;23.278;2023-05-20T00:11:37;63767.03;;;10.76;100.00
21879;BME280;27908;42.708;23.278;2023-05-20T00:14:03;63705.72;;;10.64;100.00
21879;BME280;27908;42.708;23.278;2023-05-20T00:16:28;63781.75;;;10.70;100.00
21879;BME280;27908;42.708;23.278;2023-05-20T00:18:55;63764.91;;;10.69;100.00
21879;BME280;27908;42.708;23.278;2023-05-20T00:21:21;63718.06;;;10.73;100.00
21879;BME280;27908;42.708;23.278;2023-05-20T00:23:47;63731.81;;;10.71;100.00
21879;BME280;27908;42.708;23.278;2023-05-20T00:26:12;63771.09;;;10.75;100.00
21879;BME280;27908;42.708;23.278;2023-05-20T00:28:37;63753.25;;;10.75;100.00
21879;BME280;27908;42.708;23.278;2023-05-20T00:31:06;63753.22;;;10.72;100.00
21879;BME280;27908;42.708;23.278;2023-05-20T00:33:31;63738.97;;;10.73;100.00
21879;BME280;27908;42.708;23.278;2023-05-20T00:35:56;63726.13;;;10.64;100.00
21879;BME280;27908;42.708;23.278;2023-05-20T00:38:22;63723.06;;;10.65;100.00
21879;BME280;27908;42.708;23.278;2023-05-20T00:40:47;63696.00;;;10.59;100.00
21879;BME280;27908;42.708;23.278;2023-05-20T00:43:13;63734.63;;;10.52;100.00
21879;BME280;27908;42.708;23.278;2023-05-20T00:45:38;63730.63;;;10.58;100.00
21879;BME280;27908;42.708;23.278;2023-05-20T00:48:04;63722.00;;;10.60;100.00
21879;BME280;27908;42.708;23.278;2023-05-20T00:50:30;63670.41;;;10.49;100.00
21879;BME280;27908;42.708;23.278;2023-05-20T00:52:56;63700.94;;;10.44;100.00
21879;BME280;27908;42.708;23.278;2023-05-20T00:55:23;63679.97;;;10.36;100.00
21879;BME280;27908;42.708;23.278;2023-05-20T00:57:49;63706.00;;;10.42;100.00
21879;BME280;27908;42.708;23.278;2023-05-20T01:00:15;63707.97;;;10.36;100.00
21879;BME280;27908;42.708;23.278;2023-05-20T01:02:40;63674.88;;;10.39;100.00
21879;BME280;27908;42.708;23.278;2023-05-20T01:05:06;63647.09;;;10.12;100.00
21879;BME280;27908;42.708;23.278;2023-05-20T01:07:32;63669.09;;;10.24;100.00
21879;BME280;27908;42.708;23.278;2023-05-20T01:09:58;63709.81;;;10.21;100.00
21879;BME280;27908;42.708;23.278;2023-05-20T01:12:30;63692.47;;;10.17;100.00
21879;BME280;27908;42.708;23.278;2023-05-20T01:15:10;63683.84;;;10.21;100.00
21879;BME280;27908;42.708;23.278;2023-05-20T01:17:39;63658.84;;;10.16;100.00
21879;BME280;27908;42.708;23.278;2023-05-20T01:20:07;63641.53;;;10.17;100.00
21879;BME280;27908;42.708;23.278;2023-05-20T01:22:36;63660.97;;;10.23;100.00
21879;BME280;27908;42.708;23.278;2023-05-20T01:25:02;63674.28;;;10.29;100.00
21879;BME280;27908;42.708;23.278;2023-05-20T01:27:27;63684.38;;;10.24;100.00
21879;BME280;27908;42.708;23.278;2023-05-20T01:29:54;63635.38;;;10.13;100.00
21879;BME280;27908;42.708;23.278;2023-05-20T01:32:23;63698.66;;;10.23;100.00
21879;BME280;27908;42.708;23.278;2023-05-20T01:34:51;63668.03;;;10.18;100.00
21879;BME280;27908;42.708;23.278;2023-05-20T01:37:18;63685.31;;;10.15;100.00
21879;BME280;27908;42.708;23.278;2023-05-20T01:39:44;63694.84;;;10.02;100.00
21879;BME280;27908;42.708;23.278;2023-05-20T01:42:11;63697.06;;;10.19;100.00
21879;BME280;27908;42.708;23.278;2023-05-20T01:44:38;63655.75;;;10.13;100.00
21879;BME280;27908;42.708;23.278;2023-05-20T01:47:04;63651.16;;;10.11;100.00
21879;BME280;27908;42.708;23.278;2023-05-20T01:49:29;63666.44;;;10.14;100.00
21879;BME280;27908;42.708;23.278;2023-05-20T01:51:55;63676.63;;;10.14;100.00
21879;BME280;27908;42.708;23.278;2023-05-20T01:54:21;63682.28;;;10.17;100.00
21879;BME280;27908;42.708;23.278;2023-05-20T01:56:46;63702.09;;;10.14;100.00
21879;BME280;27908;42.708;23.278;2023-05-20T01:59:12;63647.66;;;10.18;100.00
21879;BME280;27908;42.708;23.278;2023-05-20T02:01:37;63672.63;;;10.20;100.00
21879;BME280;27908;42.708;23.278;2023-05-20T02:04:03;63642.03;;;10.17;100.00
21879;BME280;27908;42.708;23.278;2023-05-20T02:06:28;63605.75;;;10.02;100.00
21879;BME280;27908;42.708;23.278;2023-05-20T02:08:54;63688.88;;;10.16;100.00
21879;BME280;27908;42.708;23.278;2023-05-20T02:11:19;63640.47;;;10.13;100.00
21879;BME280;27908;42.708;23.278;2023-05-20T02:13:46;63646.56;;;10.12;100.00
21879;BME280;27908;42.708;23.278;2023-05-20T02:16:11;63603.25;;;10.09;100.00
21879;BME280;27908;42.708;23.278;2023-05-20T02:18:36;63609.19;;;9.93;100.00
21879;BME280;27908;42.708;23.278;2023-05-20T02:21:03;63617.84;;;9.92;100.00
21879;BME280;27908;42.708;23.278;2023-05-20T02:23:32;63612.16;;;9.86;100.00
21879;BME280;27908;42.708;23.278;2023-05-20T02:25:57;63631.53;;;9.88;100.00
21879;BME280;27908;42.708;23.278;2023-05-20T02:28:23;63608.03;;;9.82;100.00
21879;BME280;27908;42.708;23.278;2023-05-20T02:30:48;63584.66;;;9.84;100.00
21879;BME280;27908;42.708;23.278;2023-05-20T02:33:17;63637.59;;;9.84;100.00
21879;BME280;27908;42.708;23.278;2023-05-20T02:35:42;63601.75;;;9.66;100.00
21879;BME280;27908;42.708;23.278;2023-05-20T02:38:08;63542.59;;;9.54;100.00
21879;BME280;27908;42.708;23.278;2023-05-20T02:40:33;63572.16;;;9.57;100.00
21879;BME280;27908;42.708;23.278;2023-05-20T02:42:59;63583.38;;;9.61;100.00
21879;BME280;27908;42.708;23.278;2023-05-20T02:45:25;63572.19;;;9.60;100.00
21879;BME280;27908;42.708;23.278;2023-05-20T02:47:50;63566.53;;;9.57;100.00
21879;BME280;27908;42.708;23.278;2023-05-20T02:50:16;63603.31;;;9.68;100.00
21879;BME280;27908;42.708;23.278;2023-05-20T02:52:41;63568.16;;;9.63;100.00
21879;BME280;27908;42.708;23.278;2023-05-20T02:55:07;63615.41;;;9.60;100.00
21879;BME280;27908;42.708;23.278;2023-05-20T02:57:33;63615.91;;;9.58;100.00
21879;BME280;27908;42.708;23.278;2023-05-20T03:00:03;63568.44;;;9.47;100.00
21879;BME280;27908;42.708;23.278;2023-05-20T03:02:29;63556.25;;;9.47;100.00
21879;BME280;27908;42.708;23.278;2023-05-20T03:04:55;63561.22;;;9.35;100.00
21879;BME280;27908;42.708;23.278;2023-05-20T03:07:20;63555.25;;;9.49;100.00
21879;BME280;27908;42.708;23.278;2023-05-20T03:09:46;63617.81;;;9.48;100.00
21879;BME280;27908;42.708;23.278;2023-05-20T03:12:12;63561.31;;;9.45;100.00
21879;BME280;27908;42.708;23.278;2023-05-20T03:14:37;63560.19;;;9.36;100.00
21879;BME280;27908;42.708;23.278;2023-05-20T03:17:03;63539.84;;;9.34;100.00
21879;BME280;27908;42.708;23.278;2023-05-20T03:19:28;63574.50;;;9.40;100.00
21879;BME280;27908;42.708;23.278;2023-05-20T03:21:53;63576.25;;;9.18;100.00
21879;BME280;27908;42.708;23.278;2023-05-20T03:24:19;63594.28;;;9.35;100.00
21879;BME280;27908;42.708;23.278;2023-05-20T03:26:44;63566.31;;;9.37;100.00
21879;BME280;27908;42.708;23.278;2023-05-20T03:29:10;63550.13;;;9.44;100.00
21879;BME280;27908;42.708;23.278;2023-05-20T03:31:36;63618.88;;;9.51;100.00
21879;BME280;27908;42.708;23.278;2023-05-20T03:34:02;63596.56;;;9.57;100.00
21879;BME280;27908;42.708;23.278;2023-05-20T03:36:27;63586.88;;;9.57;100.00
21879;BME280;27908;42.708;23.278;2023-05-20T03:38:53;63612.38;;;9.62;100.00
21879;BME280;27908;42.708;23.278;2023-05-20T03:41:18;63594.03;;;9.59;100.00
21879;BME280;27908;42.708;23.278;2023-05-20T03:43:44;63582.84;;;9.60;100.00
21879;BME280;27908;42.708;23.278;2023-05-20T03:46:09;63598.06;;;9.53;100.00
21879;BME280;27908;42.708;23.278;2023-05-20T03:48:35;63565.50;;;9.56;100.00
21879;BME280;27908;42.708;23.278;2023-05-20T03:51:00;63577.78;;;9.63;100.00
21879;BME280;27908;42.708;23.278;2023-05-20T03:53:26;63597.22;;;9.69;100.00
21879;BME280;27908;42.708;23.278;2023-05-20T03:55:52;63598.34;;;9.80;100.00
21879;BME280;27908;42.708;23.278;2023-05-20T03:58:17;63601.88;;;9.79;100.00
21879;BME280;27908;42.708;23.278;2023-05-20T04:00:46;63641.22;;;9.90;100.00
21879;BME280;27908;42.708;23.278;2023-05-20T04:03:11;63630.66;;;10.01;100.00
21879;BME280;27908;42.708;23.278;2023-05-20T04:05:37;63660.78;;;10.08;100.00
21879;BME280;27908;42.708;23.278;2023-05-20T04:08:02;63682.16;;;10.07;100.00
21879;BME280;27908;42.708;23.278;2023-05-20T04:10:29;63632.84;;;10.13;100.00
21879;BME280;27908;42.708;23.278;2023-05-20T04:12:56;63664.97;;;10.17;100.00
21879;BME280;27908;42.708;23.278;2023-05-20T04:15:22;63704.84;;;10.31;100.00
21879;BME280;27908;42.708;23.278;2023-05-20T04:17:50;63757.56;;;10.52;100.00
21879;BME280;27908;42.708;23.278;2023-05-20T04:20:17;63742.41;;;10.62;100.00
21879;BME280;27908;42.708;23.278;2023-05-20T04:22:43;63732.75;;;10.63;100.00
21879;BME280;27908;42.708;23.278;2023-05-20T04:25:09;63759.28;;;10.68;100.00
21879;BME280;27908;42.708;23.278;2023-05-20T04:27:35;63741.53;;;10.76;100.00
21879;BME280;27908;42.708;23.278;2023-05-20T04:30:02;63747.25;;;10.84;100.00
21879;BME280;27908;42.708;23.278;2023-05-20T04:32:28;63780.41;;;10.86;100.00
21879;BME280;27908;42.708;23.278;2023-05-20T04:34:54;63789.72;;;10.98;100.00
21879;BME280;27908;42.708;23.278;2023-05-20T04:37:20;63758.06;;;10.94;100.00
21879;BME280;27908;42.708;23.278;2023-05-20T04:39:46;63816.97;;;11.19;100.00
21879;BME280;27908;42.708;23.278;2023-05-20T04:42:14;63798.56;;;11.13;100.00
21879;BME280;27908;42.708;23.278;2023-05-20T04:44:42;63881.22;;;11.17;100.00
21879;BME280;27908;42.708;23.278;2023-05-20T04:47:10;63812.72;;;11.46;100.00
21879;BME280;27908;42.708;23.278;2023-05-20T04:49:36;63869.03;;;11.61;100.00
21879;BME280;27908;42.708;23.278;2023-05-20T04:52:02;63901.84;;;11.75;100.00
21879;BME280;27908;42.708;23.278;2023-05-20T04:54:29;63911.66;;;11.82;100.00
21879;BME280;27908;42.708;23.278;2023-05-20T04:56:55;63936.31;;;11.96;100.00
21879;BME280;27908;42.708;23.278;2023-05-20T04:59:21;63956.31;;;12.03;100.00
21879;BME280;27908;42.708;23.278;2023-05-20T05:01:46;63980.56;;;12.24;100.00
21879;BME280;27908;42.708;23.278;2023-05-20T05:04:11;64010.88;;;12.36;100.00
21879;BME280;27908;42.708;23.278;2023-05-20T05:06:37;63997.53;;;12.33;100.00
21879;BME280;27908;42.708;23.278;2023-05-20T05:09:02;64037.63;;;12.51;100.00
21879;BME280;27908;42.708;23.278;2023-05-20T05:11:29;63991.72;;;12.61;100.00
21879;BME280;27908;42.708;23.278;2023-05-20T05:13:54;64046.97;;;12.65;100.00
21879;BME280;27908;42.708;23.278;2023-05-20T05:16:20;64029.78;;;12.80;100.00
21879;BME280;27908;42.708;23.278;2023-05-20T05:18:45;64041.34;;;13.06;100.00
21879;BME280;27908;42.708;23.278;2023-05-20T05:21:11;64109.00;;;13.17;100.00
21879;BME280;27908;42.708;23.278;2023-05-20T05:23:36;64131.56;;;13.21;100.00
21879;BME280;27908;42.708;23.278;2023-05-20T05:26:02;64184.63;;;13.50;100.00
21879;BME280;27908;42.708;23.278;2023-05-20T05:28:27;64254.88;;;13.56;100.00
21879;BME280;27908;42.708;23.278;2023-05-20T05:30:53;64190.03;;;13.75;100.00
21879;BME280;27908;42.708;23.278;2023-05-20T05:33:20;64171.19;;;13.84;100.00
21879;BME280;27908;42.708;23.278;2023-05-20T05:35:45;64199.00;;;13.98;100.00
21879;BME280;27908;42.708;23.278;2023-05-20T05:38:11;64280.66;;;14.10;100.00
21879;BME280;27908;42.708;23.278;2023-05-20T05:40:36;64282.88;;;14.22;100.00
21879;BME280;27908;42.708;23.278;2023-05-20T05:43:01;64258.84;;;14.30;100.00
21879;BME280;27908;42.708;23.278;2023-05-20T05:45:27;64312.47;;;14.55;100.00
21879;BME280;27908;42.708;23.278;2023-05-20T05:47:53;64337.28;;;14.71;100.00
21879;BME280;27908;42.708;23.278;2023-05-20T05:50:19;64391.34;;;14.88;100.00
21879;BME280;27908;42.708;23.278;2023-05-20T05:52:44;64402.25;;;14.98;100.00
21879;BME280;27908;42.708;23.278;2023-05-20T05:55:11;64413.69;;;15.09;100.00
21879;BME280;27908;42.708;23.278;2023-05-20T05:57:36;64452.88;;;15.22;100.00
21879;BME280;27908;42.708;23.278;2023-05-20T06:00:02;64462.78;;;15.34;100.00
21879;BME280;27908;42.708;23.278;2023-05-20T06:02:28;64468.00;;;15.41;100.00
21879;BME280;27908;42.708;23.278;2023-05-20T06:04:54;64470.19;;;15.53;100.00
21879;BME280;27908;42.708;23.278;2023-05-20T06:07:19;64460.97;;;15.57;100.00
21879;BME280;27908;42.708;23.278;2023-05-20T06:09:45;64563.56;;;15.81;100.00
21879;BME280;27908;42.708;23.278;2023-05-20T06:12:11;64526.06;;;15.84;100.00
21879;BME280;27908;42.708;23.278;2023-05-20T06:14:36;64581.22;;;15.98;100.00
21879;BME280;27908;42.708;23.278;2023-05-20T06:17:02;64571.63;;;16.10;100.00
21879;BME280;27908;42.708;23.278;2023-05-20T06:19:28;64593.84;;;16.17;100.00
21879;BME280;27908;42.708;23.278;2023-05-20T06:21:55;64601.69;;;16.29;100.00
21879;BME280;27908;42.708;23.278;2023-05-20T06:24:21;64641.06;;;16.52;96.14
21879;BME280;27908;42.708;23.278;2023-05-20T06:26:47;64682.19;;;16.47;94.83
21879;BME280;27908;42.708;23.278;2023-05-20T06:29:14;64645.13;;;16.46;92.20
21879;BME280;27908;42.708;23.278;2023-05-20T06:31:40;64687.53;;;16.64;90.52
21879;BME280;27908;42.708;23.278;2023-05-20T06:34:05;64660.34;;;16.70;88.21
21879;BME280;27908;42.708;23.278;2023-05-20T06:36:30;64709.91;;;16.83;90.61
21879;BME280;27908;42.708;23.278;2023-05-20T06:38:56;64687.38;;;16.93;89.07
21879;BME280;27908;42.708;23.278;2023-05-20T06:41:21;64745.22;;;17.07;87.86
21879;BME280;27908;42.708;23.278;2023-05-20T06:43:47;64747.31;;;17.08;88.29
21879;BME280;27908;42.708;23.278;2023-05-20T06:46:12;64817.69;;;17.31;86.15
21879;BME280;27908;42.708;23.278;2023-05-20T06:48:38;64825.44;;;17.31;88.22
21879;BME280;27908;42.708;23.278;2023-05-20T06:51:06;64872.22;;;17.61;85.44
21879;BME280;27908;42.708;23.278;2023-05-20T06:53:32;64890.28;;;17.63;84.78
21879;BME280;27908;42.708;23.278;2023-05-20T06:55:57;64897.19;;;17.77;82.18
21879;BME280;27908;42.708;23.278;2023-05-20T06:58:23;64885.94;;;17.86;80.10
21879;BME280;27908;42.708;23.278;2023-05-20T07:00:48;64920.66;;;17.99;80.25
21879;BME280;27908;42.708;23.278;2023-05-20T07:03:14;64972.47;;;18.14;82.90
21879;BME280;27908;42.708;23.278;2023-05-20T07:05:39;64975.78;;;18.29;82.65
21879;BME280;27908;42.708;23.278;2023-05-20T07:08:04;64955.13;;;18.29;80.63
21879;BME280;27908;42.708;23.278;2023-05-20T07:10:30;65005.53;;;18.55;79.51
21879;BME280;27908;42.708;23.278;2023-05-20T07:12:55;65011.81;;;18.61;81.32
21879;BME280;27908;42.708;23.278;2023-05-20T07:15:21;65052.63;;;18.60;73.54
21879;BME280;27908;42.708;23.278;2023-05-20T07:17:46;65010.81;;;18.65;77.10
21879;BME280;27908;42.708;23.278;2023-05-20T07:20:11;65085.47;;;18.84;80.46
21879;BME280;27908;42.708;23.278;2023-05-20T07:22:37;65132.53;;;18.87;74.05
21879;BME280;27908;42.708;23.278;2023-05-20T07:25:02;65084.03;;;18.92;75.61
21879;BME280;27908;42.708;23.278;2023-05-20T07:27:28;65109.31;;;18.89;73.58
21879;BME280;27908;42.708;23.278;2023-05-20T07:29:53;65168.63;;;19.16;76.61
21879;BME280;27908;42.708;23.278;2023-05-20T07:32:19;65169.34;;;19.31;74.60
21879;BME280;27908;42.708;23.278;2023-05-20T07:34:44;65206.72;;;19.42;73.97
21879;BME280;27908;42.708;23.278;2023-05-20T07:37:10;65190.25;;;19.49;69.54
21879;BME280;27908;42.708;23.278;2023-05-20T07:39:37;65254.09;;;19.62;70.11
21879;BME280;27908;42.708;23.278;2023-05-20T07:42:02;65271.84;;;19.74;73.13
21879;BME280;27908;42.708;23.278;2023-05-20T07:44:28;65297.88;;;19.84;71.84
21879;BME280;27908;42.708;23.278;2023-05-20T07:46:54;65300.53;;;19.89;72.79
21879;BME280;27908;42.708;23.278;2023-05-20T07:49:20;65353.47;;;19.98;70.61
21879;BME280;27908;42.708;23.278;2023-05-20T07:51:45;65409.16;;;20.16;71.03
21879;BME280;27908;42.708;23.278;2023-05-20T07:54:11;65356.97;;;20.25;70.19
21879;BME280;27908;42.708;23.278;2023-05-20T07:56:36;65377.94;;;20.42;69.05
21879;BME280;27908;42.708;23.278;2023-05-20T07:59:02;65416.41;;;20.52;70.28
21879;BME280;27908;42.708;23.278;2023-05-20T08:01:28;65442.91;;;20.57;69.87
21879;BME280;27908;42.708;23.278;2023-05-20T08:03:53;65483.53;;;20.69;66.81
21879;BME280;27908;42.708;23.278;2023-05-20T08:06:19;65498.13;;;20.72;67.37
21879;BME280;27908;42.708;23.278;2023-05-20T08:08:45;65440.91;;;20.60;69.05
21879;BME280;27908;42.708;23.278;2023-05-20T08:11:11;65460.56;;;20.59;68.33
21879;BME280;27908;42.708;23.278;2023-05-20T08:13:37;65384.63;;;20.39;64.05
21879;BME280;27908;42.708;23.278;2023-05-20T08:16:03;65421.00;;;20.46;65.61
21879;BME280;27908;42.708;23.278;2023-05-20T08:18:30;65465.19;;;20.56;68.44
21879;BME280;27908;42.708;23.278;2023-05-20T08:20:56;65469.22;;;20.82;66.15
21879;BME280;27908;42.708;23.278;2023-05-20T08:23:23;65482.63;;;20.77;68.56
21879;BME280;27908;42.708;23.278;2023-05-20T08:25:48;65547.81;;;21.02;70.57
21879;BME280;27908;42.708;23.278;2023-05-20T08:28:14;65509.97;;;21.03;68.94
21879;BME280;27908;42.708;23.278;2023-05-20T08:30:39;65536.44;;;21.04;66.83
21879;BME280;27908;42.708;23.278;2023-05-20T08:33:05;65550.50;;;21.07;68.32
21879;BME280;27908;42.708;23.278;2023-05-20T08:35:31;65609.44;;;21.28;69.84
21879;BME280;27908;42.708;23.278;2023-05-20T08:37:56;65596.66;;;21.41;66.33
21879;BME280;27908;42.708;23.278;2023-05-20T08:40:22;65648.56;;;21.41;64.88
21879;BME280;27908;42.708;23.278;2023-05-20T08:42:50;65570.81;;;21.14;63.83
21879;BME280;27908;42.708;23.278;2023-05-20T08:45:19;65570.97;;;21.24;68.51
21879;BME280;27908;42.708;23.278;2023-05-20T08:47:48;65514.59;;;21.00;65.94
21879;BME280;27908;42.708;23.278;2023-05-20T08:50:14;65494.13;;;20.83;65.76
21879;BME280;27908;42.708;23.278;2023-05-20T08:52:44;65470.72;;;20.78;65.69
21879;BME280;27908;42.708;23.278;2023-05-20T08:55:14;65497.22;;;20.81;64.97
21879;BME280;27908;42.708;23.278;2023-05-20T08:57:41;65449.88;;;20.71;66.22
21879;BME280;27908;42.708;23.278;2023-05-20T09:00:11;65521.63;;;20.85;70.74
21879;BME280;27908;42.708;23.278;2023-05-20T09:02:38;65540.13;;;21.07;68.02
21879;BME280;27908;42.708;23.278;2023-05-20T09:05:04;65612.59;;;21.31;69.34
21879;BME280;27908;42.708;23.278;2023-05-20T09:07:30;65684.31;;;21.69;64.71
21879;BME280;27908;42.708;23.278;2023-05-20T09:09:56;65651.59;;;21.36;61.56
21879;BME280;27908;42.708;23.278;2023-05-20T09:12:21;65569.75;;;21.13;60.66
21879;BME280;27908;42.708;23.278;2023-05-20T09:14:47;65577.03;;;21.12;61.95
21879;BME280;27908;42.708;23.278;2023-05-20T09:17:13;65598.53;;;21.28;66.26
21879;BME280;27908;42.708;23.278;2023-05-20T09:19:38;65658.13;;;21.54;63.05
21879;BME280;27908;42.708;23.278;2023-05-20T09:22:04;65667.94;;;21.51;60.91
21879;BME280;27908;42.708;23.278;2023-05-20T09:24:30;65655.06;;;21.59;65.20
21879;BME280;27908;42.708;23.278;2023-05-20T09:26:56;65698.78;;;21.66;64.17
21879;BME280;27908;42.708;23.278;2023-05-20T09:29:23;65673.81;;;21.62;60.73
21879;BME280;27908;42.708;23.278;2023-05-20T09:31:49;65691.22;;;21.78;61.23
21879;BME280;27908;42.708;23.278;2023-05-20T09:34:15;65700.50;;;21.75;60.86
21879;BME280;27908;42.708;23.278;2023-05-20T09:36:44;65689.44;;;21.64;61.24
21879;BME280;27908;42.708;23.278;2023-05-20T09:39:15;65643.56;;;21.53;60.88
21879;BME280;27908;42.708;23.278;2023-05-20T09:42:04;65703.72;;;21.80;61.94
21879;BME280;27908;42.708;23.278;2023-05-20T09:44:31;65726.84;;;21.99;58.98
21879;BME280;27908;42.708;23.278;2023-05-20T09:46:58;65809.22;;;22.15;61.36
21879;BME280;27908;42.708;23.278;2023-05-20T09:49:25;65849.69;;;22.41;59.39
21879;BME280;27908;42.708;23.278;2023-05-20T09:51:53;65817.50;;;22.13;60.13
21879;BME280;27908;42.708;23.278;2023-05-20T09:54:19;65802.72;;;22.31;62.54
21879;BME280;27908;42.708;23.278;2023-05-20T09:56:46;65867.50;;;22.50;60.60
21879;BME280;27908;42.708;23.278;2023-05-20T09:59:14;65891.66;;;22.63;57.54
21879;BME280;27908;42.708;23.278;2023-05-20T10:01:41;65950.69;;;22.80;58.93
21879;BME280;27908;42.708;23.278;2023-05-20T10:04:08;65865.38;;;22.48;58.70
21879;BME280;27908;42.708;23.278;2023-05-20T10:12:28;65998.75;;;23.20;54.86
21879;BME280;27908;42.708;23.278;2023-05-20T10:20:17;65923.84;;;22.62;58.30
21879;BME280;27908;42.708;23.278;2023-05-20T10:22:54;65963.97;;;22.94;54.75
21879;BME280;27908;42.708;23.278;2023-05-20T10:25:24;66006.03;;;23.19;56.31
21879;BME280;27908;42.708;23.278;2023-05-20T10:28:07;66004.88;;;23.13;53.95
21879;BME280;27908;42.708;23.278;2023-05-20T10:30:33;66069.50;;;23.47;55.69
21879;BME280;27908;42.708;23.278;2023-05-20T10:33:03;66140.38;;;23.50;57.76
21879;BME280;27908;42.708;23.278;2023-05-20T10:35:30;66150.31;;;23.52;53.77
21879;BME280;27908;42.708;23.278;2023-05-20T10:38:16;66214.75;;;23.97;54.41
21879;BME280;27908;42.708;23.278;2023-05-20T10:40:41;66239.94;;;24.06;49.95
21879;BME280;27908;42.708;23.278;2023-05-20T10:43:11;66173.66;;;23.73;55.15
21879;BME280;27908;42.708;23.278;2023-05-20T10:45:57;66257.84;;;24.15;51.37
21879;BME280;27908;42.708;23.278;2023-05-20T10:48:27;66289.91;;;24.28;52.36
21879;BME280;27908;42.708;23.278;2023-05-20T10:50:54;66341.91;;;24.47;50.44
21879;BME280;27908;42.708;23.278;2023-05-20T10:53:22;66393.34;;;24.64;51.94
21879;BME280;27908;42.708;23.278;2023-05-20T10:55:50;66308.44;;;24.43;47.42
21879;BME280;27908;42.708;23.278;2023-05-20T10:58:16;66178.31;;;23.99;47.86
21879;BME280;27908;42.708;23.278;2023-05-20T11:00:42;66282.78;;;24.12;50.15
21879;BME280;27908;42.708;23.278;2023-05-20T11:03:08;66292.88;;;24.21;50.56
21879;BME280;27908;42.708;23.278;2023-05-20T11:05:34;66194.97;;;23.98;48.76
21879;BME280;27908;42.708;23.278;2023-05-20T11:08:04;66245.47;;;23.96;49.23
21879;BME280;27908;42.708;23.278;2023-05-20T11:10:30;66170.53;;;24.02;50.02
21879;BME280;27908;42.708;23.278;2023-05-20T11:12:56;66296.66;;;24.27;49.89
21879;BME280;27908;42.708;23.278;2023-05-20T11:15:22;66280.19;;;24.12;51.73
21879;BME280;27908;42.708;23.278;2023-05-20T11:17:54;66342.09;;;24.30;48.85
21879;BME280;27908;42.708;23.278;2023-05-20T11:20:21;66234.63;;;24.01;49.02
21879;BME280;27908;42.708;23.278;2023-05-20T11:22:49;66214.16;;;23.94;49.23
21879;BME280;27908;42.708;23.278;2023-05-20T11:25:16;66262.75;;;24.00;49.43
21879;BME280;27908;42.708;23.278;2023-05-20T11:27:42;66232.06;;;24.03;50.19
21879;BME280;27908;42.708;23.278;2023-05-20T11:30:08;66209.22;;;24.09;48.80
21879;BME280;27908;42.708;23.278;2023-05-20T11:32:35;66305.69;;;24.35;49.29
21879;BME280;27908;42.708;23.278;2023-05-20T11:35:01;66363.44;;;24.55;52.37
21879;BME280;27908;42.708;23.278;2023-05-20T11:37:26;66369.63;;;24.51;49.66
21879;BME280;27908;42.708;23.278;2023-05-20T11:40:03;66330.50;;;24.51;50.20
21879;BME280;27908;42.708;23.278;2023-05-20T11:42:32;66383.94;;;24.62;48.32
21879;BME280;27908;42.708;23.278;2023-05-20T11:45:01;66437.31;;;24.95;50.37
21879;BME280;27908;42.708;23.278;2023-05-20T11:47:27;66282.16;;;24.33;49.59
21879;BME280;27908;42.708;23.278;2023-05-20T11:49:52;66175.19;;;23.72;48.74
21879;BME280;27908;42.708;23.278;2023-05-20T11:52:18;66244.66;;;24.08;51.14
21879;BME280;27908;42.708;23.278;2023-05-20T11:54:44;66147.56;;;23.71;50.83
21879;BME280;27908;42.708;23.278;2023-05-20T11:57:12;66105.78;;;23.66;51.27
21879;BME280;27908;42.708;23.278;2023-05-20T11:59:37;66272.97;;;24.17;51.66
21879;BME280;27908;42.708;23.278;2023-05-20T12:02:03;66295.91;;;24.43;51.44
21879;BME280;27908;42.708;23.278;2023-05-20T12:04:29;66383.00;;;24.68;50.00
21879;BME280;27908;42.708;23.278;2023-05-20T12:06:54;66335.38;;;24.61;48.76
21879;BME280;27908;42.708;23.278;2023-05-20T12:09:20;66403.84;;;24.66;49.63
21879;BME280;27908;42.708;23.278;2023-05-20T12:11:46;66378.66;;;24.60;49.58
21879;BME280;27908;42.708;23.278;2023-05-20T12:14:12;66427.19;;;24.85;49.07
21879;BME280;27908;42.708;23.278;2023-05-20T12:16:37;66428.81;;;24.89;49.96
21879;BME280;27908;42.708;23.278;2023-05-20T12:19:03;66430.09;;;25.00;48.74
21879;BME280;27908;42.708;23.278;2023-05-20T12:21:30;66474.00;;;25.02;48.27
21879;BME280;27908;42.708;23.278;2023-05-20T12:23:55;66449.00;;;25.05;47.58
21879;BME280;27908;42.708;23.278;2023-05-20T12:26:25;66541.41;;;25.31;47.15
21879;BME280;27908;42.708;23.278;2023-05-20T12:28:52;66591.41;;;25.48;47.28
21879;BME280;27908;42.708;23.278;2023-05-20T12:31:18;66584.06;;;25.46;45.99
21879;BME280;27908;42.708;23.278;2023-05-20T12:33:43;66450.31;;;24.92;47.53
21879;BME280;27908;42.708;23.278;2023-05-20T12:36:09;66447.50;;;24.82;46.44
21879;BME280;27908;42.708;23.278;2023-05-20T12:38:34;66367.22;;;24.61;47.01
21879;BME280;27908;42.708;23.278;2023-05-20T12:41:00;66329.41;;;24.48;48.51
21879;BME280;27908;42.708;23.278;2023-05-20T12:43:26;66192.13;;;23.86;49.94
21879;BME280;27908;42.708;23.278;2023-05-20T12:45:51;65999.34;;;23.25;50.70
21879;BME280;27908;42.708;23.278;2023-05-20T12:48:17;65927.69;;;23.02;52.12
21879;BME280;27908;42.708;23.278;2023-05-20T12:50:43;65889.72;;;22.74;51.25
21879;BME280;27908;42.708;23.278;2023-05-20T12:53:08;65819.44;;;22.35;51.17